createdAt,value
2019-04-29T00:03:16.359Z,6.30
2019-04-29T00:08:21.798Z,6.30
2019-04-29T00:13:27.371Z,6.30
2019-04-29T00:18:51.713Z,6.20
2019-04-29T00:24:03.523Z,6.20
2019-04-29T00:29:04.375Z,6.30
2019-04-29T00:34:09.827Z,6.20
2019-04-29T00:39:37.098Z,6.20
2019-04-29T00:44:42.589Z,6.20
2019-04-29T00:49:48.150Z,6.10
2019-04-29T00:55:02.296Z,6.00
2019-04-29T01:00:08.163Z,6.10
2019-04-29T01:05:13.585Z,6.10
2019-04-29T01:10:19.286Z,6.10
2019-04-29T01:15:24.858Z,6.00
2019-04-29T01:20:30.341Z,6.00
2019-04-29T01:25:35.759Z,5.90
2019-04-29T01:30:57.836Z,5.90
2019-04-29T01:36:28.274Z,5.80
2019-04-29T01:41:39.474Z,5.70
2019-04-29T01:46:44.898Z,5.70
2019-04-29T01:51:50.355Z,5.60
2019-04-29T01:56:55.778Z,5.60
2019-04-29T02:02:01.199Z,5.60
2019-04-29T02:07:06.624Z,5.50
2019-04-29T02:12:12.138Z,5.50
2019-04-29T02:17:17.535Z,5.40
2019-04-29T02:22:43.667Z,5.40
2019-04-29T02:27:49.078Z,5.30
2019-04-29T02:32:54.487Z,5.20
2019-04-29T02:38:00.597Z,5.20
2019-04-29T02:43:17.267Z,5.10
2019-04-29T02:48:22.660Z,5.10
2019-04-29T02:53:28.082Z,5.10
2019-04-29T02:58:52.439Z,5.10
2019-04-29T03:04:10.395Z,5.10
2019-04-29T03:09:15.868Z,5.00
2019-04-29T03:14:21.279Z,5.00
2019-04-29T03:19:32.050Z,4.90
2019-04-29T03:24:37.522Z,4.90
2019-04-29T03:29:42.935Z,4.80
2019-04-29T03:34:48.352Z,4.90
2019-04-29T03:39:53.777Z,4.90
2019-04-29T03:44:59.224Z,4.90
2019-04-29T03:50:04.710Z,4.90
2019-04-29T03:55:10.181Z,4.80
2019-04-29T04:00:17.248Z,4.80
2019-04-29T04:05:47.729Z,4.80
2019-04-29T04:10:53.346Z,4.80
2019-04-29T04:15:58.991Z,4.80
2019-04-29T04:21:04.465Z,4.90
2019-04-29T04:26:10.028Z,5.00
2019-04-29T04:31:15.592Z,5.10
2019-04-29T04:36:21.044Z,5.30
2019-04-29T04:41:26.504Z,5.50
2019-04-29T04:46:31.955Z,5.70
2019-04-29T04:51:37.541Z,6.00
2019-04-29T04:56:42.991Z,6.30
2019-04-29T05:01:48.533Z,6.50
2019-04-29T05:06:54.128Z,6.80
2019-04-29T05:11:59.627Z,7.10
2019-04-29T05:17:05.112Z,7.30
2019-04-29T05:22:10.739Z,7.50
2019-04-29T05:27:16.170Z,7.60
2019-04-29T05:32:21.609Z,7.70
2019-04-29T05:37:38.952Z,7.90
2019-04-29T05:42:44.400Z,8.10
2019-04-29T05:47:57.149Z,8.60
2019-04-29T05:53:16.278Z,11.30
2019-04-29T05:58:20.809Z,14.80
2019-04-29T06:03:26.252Z,17.90
2019-04-29T06:08:34.616Z,19.90
2019-04-29T06:13:39.124Z,21.30
2019-04-29T06:18:44.700Z,22.30
2019-04-29T06:23:50.157Z,24.00
2019-04-29T06:28:55.686Z,26.10
2019-04-29T06:34:05.347Z,27.90
2019-04-29T06:39:09.015Z,29.50
2019-04-29T06:44:16.606Z,30.70
2019-04-29T06:49:22.365Z,31.80
2019-04-29T06:54:28.072Z,33.10
2019-04-29T06:59:33.831Z,34.40
2019-04-29T07:04:39.754Z,35.30
2019-04-29T07:09:45.449Z,35.60
2019-04-29T07:14:51.177Z,35.80
2019-04-29T07:19:57.645Z,35.70
2019-04-29T07:25:04.400Z,36.10
2019-04-29T07:30:10.162Z,37.10
2019-04-29T07:35:15.979Z,38.10
2019-04-29T07:40:21.986Z,39.20
2019-04-29T07:45:52.715Z,39.90
2019-04-29T07:50:59.577Z,40.80
2019-04-29T07:56:06.660Z,42.10
2019-04-29T08:01:13.378Z,42.80
2019-04-29T08:06:19.232Z,43.30
2019-04-29T08:11:24.985Z,44.00
2019-04-29T08:16:30.694Z,44.80
2019-04-29T08:21:36.415Z,45.40
2019-04-29T08:26:47.307Z,46.10
2019-04-29T08:31:52.035Z,46.60
2019-04-29T08:36:57.064Z,47.30
2019-04-29T08:42:09.029Z,47.90
2019-04-29T08:47:23.028Z,48.30
2019-04-29T08:52:29.212Z,48.90
2019-04-29T08:57:36.524Z,49.40
2019-04-29T09:02:46.929Z,50.40
2019-04-29T09:07:52.619Z,51.20
2019-04-29T09:12:57.728Z,51.90
2019-04-29T09:18:04.542Z,50.90
2019-04-29T09:23:12.838Z,50.60
2019-04-29T09:28:27.000Z,50.10
2019-04-29T09:33:26.822Z,50.70
2019-04-29T09:38:36.753Z,50.30
2019-04-29T09:44:03.869Z,49.10
2019-04-29T09:49:11.227Z,47.20
2019-04-29T09:54:17.003Z,43.10
2019-04-29T09:59:25.933Z,39.20
2019-04-29T10:04:56.738Z,35.70
2019-04-29T10:10:02.387Z,32.50
2019-04-29T10:15:10.287Z,29.80
2019-04-29T10:20:23.802Z,28.00
2019-04-29T10:25:29.619Z,26.40
2019-04-29T10:30:35.093Z,25.20
2019-04-29T10:35:45.038Z,23.70
2019-04-29T10:41:07.883Z,22.60
2019-04-29T10:46:30.539Z,22.30
2019-04-29T10:51:36.126Z,22.40
2019-04-29T10:56:41.529Z,22.10
2019-04-29T11:02:49.488Z,21.20
2019-04-29T11:08:04.440Z,21.10
2019-04-29T11:13:09.979Z,20.90
2019-04-29T11:18:18.261Z,20.80
2019-04-29T11:23:41.802Z,20.60
2019-04-29T11:29:00.434Z,20.60
2019-04-29T11:34:15.726Z,20.50
2019-04-29T11:39:21.548Z,20.60
2019-04-29T11:44:27.966Z,20.60
2019-04-29T11:49:39.583Z,20.40
2019-04-29T11:54:45.141Z,20.30
2019-04-29T12:00:00.898Z,20.00
2019-04-29T12:05:25.107Z,19.40
2019-04-29T12:10:30.682Z,19.00
2019-04-29T12:15:56.274Z,19.00
2019-04-29T12:21:38.829Z,19.20
2019-04-29T12:26:44.689Z,19.70
2019-04-29T12:32:09.063Z,20.30
2019-04-29T12:37:34.465Z,20.30
2019-04-29T12:42:57.361Z,20.10
2019-04-29T12:48:06.378Z,20.10
2019-04-29T12:53:10.978Z,19.90
2019-04-29T12:58:19.230Z,19.90
2019-04-29T13:03:42.654Z,19.90
2019-04-29T13:08:51.318Z,19.90
2019-04-29T13:14:01.406Z,19.70
2019-04-29T13:19:14.438Z,19.80
2019-04-29T13:24:25.981Z,19.90
2019-04-29T13:29:27.894Z,20.60
2019-04-29T13:34:37.288Z,20.80
2019-04-29T13:39:42.945Z,20.60
2019-04-29T13:45:05.028Z,20.80
2019-04-29T13:50:17.865Z,21.00
2019-04-29T13:55:20.319Z,21.40
2019-04-29T14:00:45.470Z,21.90
2019-04-29T14:06:03.590Z,22.00
2019-04-29T14:10:58.202Z,21.50
2019-04-29T14:16:07.632Z,21.40
2019-04-29T14:21:12.028Z,20.80
2019-04-29T14:26:17.524Z,20.60
2019-04-29T14:31:24.566Z,20.70
2019-04-29T14:36:30.146Z,20.70
2019-04-29T14:41:37.702Z,20.40
2019-04-29T14:47:08.349Z,20.40
2019-04-29T14:52:14.986Z,20.40
2019-04-29T14:57:21.135Z,20.30
2019-04-29T15:02:27.715Z,20.10
2019-04-29T15:07:39.085Z,20.20
2019-04-29T15:13:01.847Z,20.40
2019-04-29T15:18:15.948Z,20.00
2019-04-29T15:23:28.008Z,19.80
2019-04-29T15:28:22.634Z,19.70
2019-04-29T15:33:30.534Z,19.70
2019-04-29T15:38:35.474Z,19.80
2019-04-29T15:43:47.341Z,19.80
2019-04-29T15:48:48.144Z,19.90
2019-04-29T15:53:54.482Z,19.80
2019-04-29T15:59:08.061Z,19.50
2019-04-29T16:04:10.815Z,19.30
2019-04-29T16:09:30.430Z,19.40
2019-04-29T16:14:34.931Z,19.10
2019-04-29T16:19:40.519Z,18.70
2019-04-29T16:24:45.937Z,18.40
2019-04-29T16:29:53.659Z,18.00
2019-04-29T16:34:58.649Z,17.70
2019-04-29T16:40:04.443Z,17.40
2019-04-29T16:45:12.331Z,17.20
2019-04-29T16:50:17.344Z,16.90
2019-04-29T16:55:22.764Z,16.80
2019-04-29T17:00:32.099Z,16.70
2019-04-29T17:05:37.578Z,16.50
2019-04-29T17:10:50.244Z,16.40
2019-04-29T17:15:55.747Z,16.40
2019-04-29T17:21:05.221Z,16.20
2019-04-29T17:26:08.738Z,16.00
2019-04-29T17:31:42.172Z,15.90
2019-04-29T17:36:48.399Z,15.90
2019-04-29T17:41:53.855Z,15.80
2019-04-29T17:47:07.037Z,15.70
2019-04-29T17:52:19.848Z,15.60
2019-04-29T17:57:36.952Z,15.60
2019-04-29T18:03:00.900Z,15.40
2019-04-29T18:08:11.529Z,15.30
2019-04-29T18:13:23.552Z,15.10
2019-04-29T18:18:46.099Z,15.00
2019-04-29T18:24:01.651Z,14.90
2019-04-29T18:29:08.060Z,14.70
2019-04-29T18:34:15.291Z,14.60
2019-04-29T18:39:28.178Z,14.50
2019-04-29T18:44:31.789Z,14.50
2019-04-29T18:49:37.225Z,14.40
2019-04-29T18:54:42.734Z,14.40
2019-04-29T18:59:48.467Z,14.30
2019-04-29T19:05:04.288Z,14.20
2019-04-29T19:10:14.368Z,14.20
2019-04-29T19:15:17.906Z,14.10
2019-04-29T19:20:25.062Z,14.10
2019-04-29T19:25:30.671Z,14.00
2019-04-29T19:30:36.145Z,14.00
2019-04-29T19:35:41.623Z,13.90
2019-04-29T19:40:47.085Z,13.90
2019-04-29T19:45:52.648Z,13.80
2019-04-29T19:51:13.842Z,13.70
2019-04-29T19:56:06.806Z,13.70
2019-04-29T20:01:23.357Z,13.70
2019-04-29T20:06:25.177Z,13.60
2019-04-29T20:11:32.602Z,13.60
2019-04-29T20:16:50.956Z,13.50
2019-04-29T20:21:50.980Z,13.50
2019-04-29T20:26:56.515Z,13.40
2019-04-29T20:32:02.277Z,13.40
2019-04-29T20:37:10.624Z,13.30
2019-04-29T20:42:15.932Z,13.30
2019-04-29T20:47:23.686Z,13.30
2019-04-29T20:52:52.150Z,13.30
2019-04-29T20:57:57.701Z,13.20
2019-04-29T21:03:04.267Z,13.20
2019-04-29T21:08:16.383Z,13.20
2019-04-29T21:13:42.795Z,13.10
2019-04-29T21:18:52.946Z,13.10
2019-04-29T21:23:58.526Z,13.00
2019-04-29T21:29:05.484Z,13.00
2019-04-29T21:34:12.026Z,13.00
2019-04-29T21:39:39.386Z,12.90
2019-04-29T21:44:44.922Z,12.90
2019-04-29T21:49:54.625Z,12.80
2019-04-29T21:54:57.760Z,12.80
2019-04-29T22:00:03.289Z,12.80
2019-04-29T22:05:09.598Z,12.90
2019-04-29T22:10:20.056Z,12.90
2019-04-29T22:15:32.093Z,12.80
2019-04-29T22:20:30.744Z,12.80
2019-04-29T22:25:36.657Z,12.80
2019-04-29T22:30:42.291Z,12.80
2019-04-29T22:35:47.747Z,12.70
2019-04-29T22:40:55.105Z,12.70
2019-04-29T22:46:04.884Z,12.60
2019-04-29T22:51:10.205Z,12.60
2019-04-29T22:56:15.979Z,12.60
2019-04-29T23:01:21.496Z,12.50
2019-04-29T23:06:26.993Z,12.50
2019-04-29T23:11:34.764Z,12.40
2019-04-29T23:16:39.716Z,12.30
2019-04-29T23:22:02.533Z,12.30
2019-04-29T23:27:11.567Z,12.20
2019-04-29T23:32:15.418Z,12.10
2019-04-29T23:37:23.864Z,12.00
2019-04-29T23:42:28.103Z,12.00
2019-04-29T23:47:35.606Z,12.00
2019-04-29T23:52:42.868Z,12.10
2019-04-29T23:58:13.076Z,12.00
